sensor_id;sensor_type;location;lat;lon;timestamp;P1;durP1;ratioP1;P2;durP2;ratioP2
38937;SDS011;24727;51.974;20.868;2024-03-02T00:00:21;38.22;;;21.00;;
38937;SDS011;24727;51.974;20.868;2024-03-02T00:02:48;31.95;;;19.17;;
38937;SDS011;24727;51.974;20.868;2024-03-02T00:05:15;37.00;;;22.00;;
38937;SDS011;24727;51.974;20.868;2024-03-02T00:07:47;34.03;;;20.23;;
38937;SDS011;24727;51.974;20.868;2024-03-02T00:10:21;32.95;;;20.25;;
38937;SDS011;24727;51.974;20.868;2024-03-02T00:12:54;36.80;;;21.58;;
38937;SDS011;24727;51.974;20.868;2024-03-02T00:18:35;31.13;;;19.30;;
38937;SDS011;24727;51.974;20.868;2024-03-02T00:21:01;33.00;;;19.48;;
38937;SDS011;24727;51.974;20.868;2024-03-02T00:23:31;32.95;;;20.23;;
38937;SDS011;24727;51.974;20.868;2024-03-02T00:25:58;35.55;;;21.15;;
38937;SDS011;24727;51.974;20.868;2024-03-02T00:28:31;35.97;;;20.70;;
38937;SDS011;24727;51.974;20.868;2024-03-02T00:31:04;37.60;;;21.35;;
38937;SDS011;24727;51.974;20.868;2024-03-02T00:33:46;30.67;;;18.60;;
38937;SDS011;24727;51.974;20.868;2024-03-02T00:36:16;34.75;;;20.70;;
38937;SDS011;24727;51.974;20.868;2024-03-02T00:38:48;33.10;;;19.90;;
38937;SDS011;24727;51.974;20.868;2024-03-02T00:43:50;34.35;;;20.95;;
38937;SDS011;24727;51.974;20.868;2024-03-02T00:46:27;32.60;;;19.55;;
38937;SDS011;24727;51.974;20.868;2024-03-02T00:48:56;35.90;;;21.35;;
38937;SDS011;24727;51.974;20.868;2024-03-02T00:51:24;35.13;;;20.55;;
38937;SDS011;24727;51.974;20.868;2024-03-02T00:53:52;30.45;;;19.08;;
38937;SDS011;24727;51.974;20.868;2024-03-02T00:56:21;33.47;;;20.42;;
38937;SDS011;24727;51.974;20.868;2024-03-02T00:58:48;29.05;;;17.23;;
38937;SDS011;24727;51.974;20.868;2024-03-02T01:01:14;35.45;;;19.83;;
38937;SDS011;24727;51.974;20.868;2024-03-02T01:03:41;28.75;;;16.83;;
38937;SDS011;24727;51.974;20.868;2024-03-02T01:06:07;35.47;;;19.75;;
38937;SDS011;24727;51.974;20.868;2024-03-02T01:08:34;32.53;;;19.83;;
38937;SDS011;24727;51.974;20.868;2024-03-02T01:11:00;32.10;;;19.05;;
38937;SDS011;24727;51.974;20.868;2024-03-02T01:13:27;30.00;;;19.70;;
38937;SDS011;24727;51.974;20.868;2024-03-02T01:15:53;32.83;;;19.92;;
38937;SDS011;24727;51.974;20.868;2024-03-02T01:18:20;34.08;;;21.75;;
38937;SDS011;24727;51.974;20.868;2024-03-02T01:20:47;35.13;;;21.83;;
38937;SDS011;24727;51.974;20.868;2024-03-02T01:23:13;34.28;;;19.02;;
38937;SDS011;24727;51.974;20.868;2024-03-02T01:25:39;36.28;;;20.52;;
38937;SDS011;24727;51.974;20.868;2024-03-02T01:28:05;33.78;;;20.30;;
38937;SDS011;24727;51.974;20.868;2024-03-02T01:30:31;36.08;;;21.17;;
38937;SDS011;24727;51.974;20.868;2024-03-02T01:32:57;38.13;;;22.23;;
38937;SDS011;24727;51.974;20.868;2024-03-02T01:35:24;34.88;;;19.20;;
38937;SDS011;24727;51.974;20.868;2024-03-02T01:37:51;32.28;;;19.50;;
38937;SDS011;24727;51.974;20.868;2024-03-02T01:40:17;35.13;;;20.27;;
38937;SDS011;24727;51.974;20.868;2024-03-02T01:42:44;35.67;;;20.35;;
38937;SDS011;24727;51.974;20.868;2024-03-02T01:45:09;30.60;;;18.10;;
38937;SDS011;24727;51.974;20.868;2024-03-02T01:47:35;34.63;;;19.13;;
38937;SDS011;24727;51.974;20.868;2024-03-02T01:50:01;30.63;;;19.48;;
38937;SDS011;24727;51.974;20.868;2024-03-02T01:52:27;37.55;;;20.75;;
38937;SDS011;24727;51.974;20.868;2024-03-02T01:54:54;28.10;;;17.35;;
38937;SDS011;24727;51.974;20.868;2024-03-02T01:57:20;32.35;;;19.55;;
38937;SDS011;24727;51.974;20.868;2024-03-02T01:59:46;29.90;;;17.63;;
38937;SDS011;24727;51.974;20.868;2024-03-02T02:02:16;28.17;;;18.45;;
38937;SDS011;24727;51.974;20.868;2024-03-02T02:04:42;32.60;;;19.00;;
38937;SDS011;24727;51.974;20.868;2024-03-02T02:07:07;37.88;;;20.65;;
38937;SDS011;24727;51.974;20.868;2024-03-02T02:09:33;36.30;;;19.23;;
38937;SDS011;24727;51.974;20.868;2024-03-02T02:11:59;34.72;;;20.58;;
38937;SDS011;24727;51.974;20.868;2024-03-02T02:14:25;32.50;;;19.67;;
38937;SDS011;24727;51.974;20.868;2024-03-02T02:16:51;31.70;;;19.35;;
38937;SDS011;24727;51.974;20.868;2024-03-02T02:19:17;34.15;;;19.58;;
38937;SDS011;24727;51.974;20.868;2024-03-02T02:21:43;34.83;;;20.45;;
38937;SDS011;24727;51.974;20.868;2024-03-02T02:24:09;33.05;;;20.35;;
38937;SDS011;24727;51.974;20.868;2024-03-02T02:26:35;32.50;;;19.15;;
38937;SDS011;24727;51.974;20.868;2024-03-02T02:29:01;34.25;;;20.08;;
38937;SDS011;24727;51.974;20.868;2024-03-02T02:31:27;35.58;;;20.92;;
38937;SDS011;24727;51.974;20.868;2024-03-02T02:34:01;29.95;;;18.70;;
38937;SDS011;24727;51.974;20.868;2024-03-02T02:36:27;38.67;;;21.25;;
38937;SDS011;24727;51.974;20.868;2024-03-02T02:38:53;27.05;;;17.08;;
38937;SDS011;24727;51.974;20.868;2024-03-02T02:41:19;33.10;;;20.27;;
38937;SDS011;24727;51.974;20.868;2024-03-02T02:43:45;32.40;;;21.17;;
38937;SDS011;24727;51.974;20.868;2024-03-02T02:46:11;35.95;;;21.45;;
38937;SDS011;24727;51.974;20.868;2024-03-02T02:48:36;35.85;;;19.98;;
38937;SDS011;24727;51.974;20.868;2024-03-02T02:51:02;33.15;;;20.15;;
38937;SDS011;24727;51.974;20.868;2024-03-02T02:53:28;33.20;;;20.08;;
38937;SDS011;24727;51.974;20.868;2024-03-02T02:55:54;33.40;;;19.67;;
38937;SDS011;24727;51.974;20.868;2024-03-02T02:58:20;34.47;;;20.80;;
38937;SDS011;24727;51.974;20.868;2024-03-02T03:00:46;33.92;;;20.27;;
38937;SDS011;24727;51.974;20.868;2024-03-02T03:03:12;30.27;;;18.23;;
38937;SDS011;24727;51.974;20.868;2024-03-02T03:05:37;36.08;;;21.58;;
38937;SDS011;24727;51.974;20.868;2024-03-02T03:08:03;35.20;;;20.33;;
38937;SDS011;24727;51.974;20.868;2024-03-02T03:10:29;35.53;;;21.00;;
38937;SDS011;24727;51.974;20.868;2024-03-02T03:12:55;35.75;;;21.00;;
38937;SDS011;24727;51.974;20.868;2024-03-02T03:15:21;34.60;;;20.42;;
38937;SDS011;24727;51.974;20.868;2024-03-02T03:17:47;36.53;;;21.77;;
38937;SDS011;24727;51.974;20.868;2024-03-02T03:20:13;37.97;;;21.65;;
38937;SDS011;24727;51.974;20.868;2024-03-02T03:22:40;32.65;;;18.92;;
38937;SDS011;24727;51.974;20.868;2024-03-02T03:25:06;37.97;;;21.40;;
38937;SDS011;24727;51.974;20.868;2024-03-02T03:27:33;37.38;;;19.80;;
38937;SDS011;24727;51.974;20.868;2024-03-02T03:29:58;36.60;;;21.45;;
38937;SDS011;24727;51.974;20.868;2024-03-02T03:32:24;38.75;;;21.63;;
38937;SDS011;24727;51.974;20.868;2024-03-02T03:34:50;38.90;;;21.70;;
38937;SDS011;24727;51.974;20.868;2024-03-02T03:37:16;38.13;;;21.52;;
38937;SDS011;24727;51.974;20.868;2024-03-02T03:39:42;37.50;;;20.77;;
38937;SDS011;24727;51.974;20.868;2024-03-02T03:42:08;40.85;;;22.50;;
38937;SDS011;24727;51.974;20.868;2024-03-02T03:44:34;37.05;;;22.00;;
38937;SDS011;24727;51.974;20.868;2024-03-02T03:47:00;34.10;;;19.75;;
38937;SDS011;24727;51.974;20.868;2024-03-02T03:49:28;39.22;;;22.27;;
38937;SDS011;24727;51.974;20.868;2024-03-02T03:51:54;39.40;;;22.30;;
38937;SDS011;24727;51.974;20.868;2024-03-02T03:54:20;35.97;;;20.48;;
38937;SDS011;24727;51.974;20.868;2024-03-02T03:56:46;40.25;;;21.77;;
38937;SDS011;24727;51.974;20.868;2024-03-02T03:59:12;33.22;;;18.58;;
38937;SDS011;24727;51.974;20.868;2024-03-02T04:01:37;40.63;;;23.55;;
38937;SDS011;24727;51.974;20.868;2024-03-02T04:04:03;35.92;;;19.33;;
38937;SDS011;24727;51.974;20.868;2024-03-02T04:06:29;40.30;;;21.90;;
38937;SDS011;24727;51.974;20.868;2024-03-02T04:08:55;41.50;;;20.92;;
38937;SDS011;24727;51.974;20.868;2024-03-02T04:11:21;43.55;;;22.20;;
38937;SDS011;24727;51.974;20.868;2024-03-02T04:13:47;38.22;;;20.15;;
38937;SDS011;24727;51.974;20.868;2024-03-02T04:16:13;38.40;;;21.10;;
38937;SDS011;24727;51.974;20.868;2024-03-02T04:18:38;34.50;;;19.10;;
38937;SDS011;24727;51.974;20.868;2024-03-02T04:21:04;38.92;;;20.90;;
38937;SDS011;24727;51.974;20.868;2024-03-02T04:23:31;40.97;;;20.85;;
38937;SDS011;24727;51.974;20.868;2024-03-02T04:25:56;34.47;;;18.85;;
38937;SDS011;24727;51.974;20.868;2024-03-02T04:28:22;40.10;;;21.52;;
38937;SDS011;24727;51.974;20.868;2024-03-02T04:30:48;37.28;;;21.08;;
38937;SDS011;24727;51.974;20.868;2024-03-02T04:33:14;41.10;;;20.23;;
38937;SDS011;24727;51.974;20.868;2024-03-02T04:35:39;39.92;;;20.98;;
38937;SDS011;24727;51.974;20.868;2024-03-02T04:38:05;38.83;;;20.85;;
38937;SDS011;24727;51.974;20.868;2024-03-02T04:40:31;38.40;;;21.05;;
38937;SDS011;24727;51.974;20.868;2024-03-02T04:42:57;40.03;;;21.40;;
38937;SDS011;24727;51.974;20.868;2024-03-02T04:45:24;39.22;;;21.20;;
38937;SDS011;24727;51.974;20.868;2024-03-02T04:47:50;40.47;;;21.10;;
38937;SDS011;24727;51.974;20.868;2024-03-02T04:50:16;37.15;;;20.55;;
38937;SDS011;24727;51.974;20.868;2024-03-02T04:52:41;35.05;;;19.80;;
38937;SDS011;24727;51.974;20.868;2024-03-02T04:55:07;38.20;;;20.60;;
38937;SDS011;24727;51.974;20.868;2024-03-02T04:57:54;37.35;;;20.75;;
38937;SDS011;24727;51.974;20.868;2024-03-02T05:00:21;37.38;;;19.50;;
38937;SDS011;24727;51.974;20.868;2024-03-02T05:02:47;41.47;;;21.73;;
38937;SDS011;24727;51.974;20.868;2024-03-02T05:05:13;41.00;;;20.85;;
38937;SDS011;24727;51.974;20.868;2024-03-02T05:07:40;44.03;;;22.23;;
38937;SDS011;24727;51.974;20.868;2024-03-02T05:10:07;38.78;;;20.55;;
38937;SDS011;24727;51.974;20.868;2024-03-02T05:12:34;40.28;;;20.95;;
38937;SDS011;24727;51.974;20.868;2024-03-02T05:15:20;40.28;;;20.80;;
38937;SDS011;24727;51.974;20.868;2024-03-02T05:17:46;43.47;;;22.08;;
38937;SDS011;24727;51.974;20.868;2024-03-02T05:20:12;42.47;;;22.13;;
38937;SDS011;24727;51.974;20.868;2024-03-02T05:22:38;45.72;;;24.15;;
38937;SDS011;24727;51.974;20.868;2024-03-02T05:25:05;46.88;;;22.67;;
38937;SDS011;24727;51.974;20.868;2024-03-02T05:27:31;46.50;;;23.75;;
38937;SDS011;24727;51.974;20.868;2024-03-02T05:29:58;36.95;;;20.70;;
38937;SDS011;24727;51.974;20.868;2024-03-02T05:32:24;44.70;;;22.23;;
38937;SDS011;24727;51.974;20.868;2024-03-02T05:34:50;46.60;;;21.83;;
38937;SDS011;24727;51.974;20.868;2024-03-02T05:37:16;47.00;;;23.48;;
38937;SDS011;24727;51.974;20.868;2024-03-02T05:39:42;47.15;;;24.58;;
38937;SDS011;24727;51.974;20.868;2024-03-02T05:42:08;52.92;;;24.88;;
38937;SDS011;24727;51.974;20.868;2024-03-02T05:44:35;53.05;;;24.42;;
38937;SDS011;24727;51.974;20.868;2024-03-02T05:47:01;46.38;;;21.17;;
38937;SDS011;24727;51.974;20.868;2024-03-02T05:49:28;53.58;;;25.10;;
38937;SDS011;24727;51.974;20.868;2024-03-02T05:51:54;57.22;;;26.25;;
38937;SDS011;24727;51.974;20.868;2024-03-02T05:54:20;51.88;;;24.95;;
38937;SDS011;24727;51.974;20.868;2024-03-02T05:56:46;55.45;;;26.83;;
38937;SDS011;24727;51.974;20.868;2024-03-02T05:59:12;51.83;;;23.02;;
38937;SDS011;24727;51.974;20.868;2024-03-02T06:01:46;56.20;;;25.52;;
38937;SDS011;24727;51.974;20.868;2024-03-02T06:04:15;55.08;;;25.70;;
38937;SDS011;24727;51.974;20.868;2024-03-02T06:06:41;50.05;;;24.25;;
38937;SDS011;24727;51.974;20.868;2024-03-02T06:09:07;49.50;;;25.15;;
38937;SDS011;24727;51.974;20.868;2024-03-02T06:11:34;53.97;;;24.88;;
38937;SDS011;24727;51.974;20.868;2024-03-02T06:14:01;54.47;;;26.02;;
38937;SDS011;24727;51.974;20.868;2024-03-02T06:16:27;54.90;;;25.23;;
38937;SDS011;24727;51.974;20.868;2024-03-02T06:18:53;57.60;;;29.17;;
38937;SDS011;24727;51.974;20.868;2024-03-02T06:21:19;55.83;;;27.83;;
38937;SDS011;24727;51.974;20.868;2024-03-02T06:23:45;55.95;;;25.80;;
38937;SDS011;24727;51.974;20.868;2024-03-02T06:26:11;62.15;;;27.67;;
38937;SDS011;24727;51.974;20.868;2024-03-02T06:28:37;52.05;;;25.10;;
38937;SDS011;24727;51.974;20.868;2024-03-02T06:31:03;51.20;;;24.27;;
38937;SDS011;24727;51.974;20.868;2024-03-02T06:33:29;52.53;;;23.35;;
38937;SDS011;24727;51.974;20.868;2024-03-02T06:35:55;49.78;;;23.55;;
38937;SDS011;24727;51.974;20.868;2024-03-02T06:38:21;54.00;;;24.70;;
38937;SDS011;24727;51.974;20.868;2024-03-02T06:40:47;52.20;;;23.58;;
38937;SDS011;24727;51.974;20.868;2024-03-02T06:43:12;52.40;;;24.90;;
38937;SDS011;24727;51.974;20.868;2024-03-02T06:45:38;48.55;;;23.27;;
38937;SDS011;24727;51.974;20.868;2024-03-02T06:48:04;51.90;;;24.25;;
38937;SDS011;24727;51.974;20.868;2024-03-02T06:50:31;40.90;;;20.33;;
38937;SDS011;24727;51.974;20.868;2024-03-02T06:52:57;44.08;;;22.15;;
38937;SDS011;24727;51.974;20.868;2024-03-02T06:55:23;56.45;;;24.27;;
38937;SDS011;24727;51.974;20.868;2024-03-02T06:57:49;45.58;;;21.70;;
38937;SDS011;24727;51.974;20.868;2024-03-02T07:00:16;48.67;;;22.98;;
38937;SDS011;24727;51.974;20.868;2024-03-02T07:02:43;50.92;;;23.70;;
38937;SDS011;24727;51.974;20.868;2024-03-02T07:05:10;47.33;;;24.15;;
38937;SDS011;24727;51.974;20.868;2024-03-02T07:07:36;46.85;;;22.48;;
38937;SDS011;24727;51.974;20.868;2024-03-02T07:10:05;50.33;;;23.83;;
38937;SDS011;24727;51.974;20.868;2024-03-02T07:12:32;42.42;;;20.38;;
38937;SDS011;24727;51.974;20.868;2024-03-02T07:14:58;40.40;;;22.35;;
38937;SDS011;24727;51.974;20.868;2024-03-02T07:17:30;43.35;;;21.95;;
38937;SDS011;24727;51.974;20.868;2024-03-02T07:19:56;44.08;;;22.23;;
38937;SDS011;24727;51.974;20.868;2024-03-02T07:22:23;39.60;;;20.35;;
38937;SDS011;24727;51.974;20.868;2024-03-02T07:24:50;46.97;;;23.63;;
38937;SDS011;24727;51.974;20.868;2024-03-02T07:27:16;44.58;;;23.60;;
38937;SDS011;24727;51.974;20.868;2024-03-02T07:29:43;45.92;;;22.90;;
38937;SDS011;24727;51.974;20.868;2024-03-02T07:32:09;39.75;;;20.98;;
38937;SDS011;24727;51.974;20.868;2024-03-02T07:34:35;43.67;;;23.42;;
38937;SDS011;24727;51.974;20.868;2024-03-02T07:37:02;43.92;;;20.73;;
38937;SDS011;24727;51.974;20.868;2024-03-02T07:39:28;43.13;;;22.90;;
38937;SDS011;24727;51.974;20.868;2024-03-02T07:41:55;44.22;;;22.40;;
38937;SDS011;24727;51.974;20.868;2024-03-02T07:44:21;42.35;;;22.08;;
38937;SDS011;24727;51.974;20.868;2024-03-02T07:46:48;38.85;;;20.55;;
38937;SDS011;24727;51.974;20.868;2024-03-02T07:49:20;37.45;;;19.00;;
38937;SDS011;24727;51.974;20.868;2024-03-02T07:51:46;39.88;;;21.00;;
38937;SDS011;24727;51.974;20.868;2024-03-02T07:57:33;39.92;;;19.27;;
38937;SDS011;24727;51.974;20.868;2024-03-02T08:02:56;39.67;;;20.88;;
38937;SDS011;24727;51.974;20.868;2024-03-02T08:05:22;37.95;;;20.50;;
38937;SDS011;24727;51.974;20.868;2024-03-02T08:07:48;36.60;;;19.80;;
38937;SDS011;24727;51.974;20.868;2024-03-02T08:10:17;38.65;;;21.08;;
38937;SDS011;24727;51.974;20.868;2024-03-02T08:12:44;40.42;;;20.00;;
38937;SDS011;24727;51.974;20.868;2024-03-02T08:15:10;40.88;;;20.80;;
38937;SDS011;24727;51.974;20.868;2024-03-02T08:17:38;42.28;;;21.20;;
38937;SDS011;24727;51.974;20.868;2024-03-02T08:20:10;33.63;;;18.75;;
38937;SDS011;24727;51.974;20.868;2024-03-02T08:22:36;36.05;;;19.42;;
38937;SDS011;24727;51.974;20.868;2024-03-02T08:25:03;40.28;;;19.42;;
38937;SDS011;24727;51.974;20.868;2024-03-02T08:27:29;40.67;;;21.45;;
38937;SDS011;24727;51.974;20.868;2024-03-02T08:29:55;36.30;;;18.58;;
38937;SDS011;24727;51.974;20.868;2024-03-02T08:32:20;36.20;;;20.30;;
38937;SDS011;24727;51.974;20.868;2024-03-02T08:34:47;40.42;;;21.23;;
38937;SDS011;24727;51.974;20.868;2024-03-02T08:37:13;42.83;;;21.80;;
38937;SDS011;24727;51.974;20.868;2024-03-02T08:39:39;43.67;;;20.98;;
38937;SDS011;24727;51.974;20.868;2024-03-02T08:42:05;38.88;;;20.80;;
38937;SDS011;24727;51.974;20.868;2024-03-02T08:44:31;42.63;;;21.33;;
38937;SDS011;24727;51.974;20.868;2024-03-02T08:46:58;42.20;;;21.75;;
38937;SDS011;24727;51.974;20.868;2024-03-02T08:49:24;42.20;;;20.20;;
38937;SDS011;24727;51.974;20.868;2024-03-02T08:51:50;41.45;;;21.02;;
38937;SDS011;24727;51.974;20.868;2024-03-02T08:54:22;43.72;;;22.58;;
38937;SDS011;24727;51.974;20.868;2024-03-02T08:56:48;45.33;;;23.83;;
38937;SDS011;24727;51.974;20.868;2024-03-02T08:59:15;49.10;;;23.40;;
38937;SDS011;24727;51.974;20.868;2024-03-02T09:01:41;40.90;;;22.15;;
38937;SDS011;24727;51.974;20.868;2024-03-02T09:04:08;44.63;;;22.67;;
38937;SDS011;24727;51.974;20.868;2024-03-02T09:06:34;39.00;;;20.77;;
38937;SDS011;24727;51.974;20.868;2024-03-02T09:09:00;39.38;;;21.80;;
38937;SDS011;24727;51.974;20.868;2024-03-02T09:11:26;38.10;;;19.65;;
38937;SDS011;24727;51.974;20.868;2024-03-02T09:13:52;40.33;;;21.60;;
38937;SDS011;24727;51.974;20.868;2024-03-02T09:16:19;43.80;;;21.75;;
38937;SDS011;24727;51.974;20.868;2024-03-02T09:18:45;38.25;;;19.20;;
38937;SDS011;24727;51.974;20.868;2024-03-02T09:21:12;40.13;;;20.88;;
38937;SDS011;24727;51.974;20.868;2024-03-02T09:23:38;41.35;;;22.23;;
38937;SDS011;24727;51.974;20.868;2024-03-02T09:26:05;47.10;;;23.40;;
38937;SDS011;24727;51.974;20.868;2024-03-02T09:28:31;38.33;;;21.48;;
38937;SDS011;24727;51.974;20.868;2024-03-02T09:30:57;43.08;;;21.77;;
38937;SDS011;24727;51.974;20.868;2024-03-02T09:33:23;41.08;;;22.55;;
38937;SDS011;24727;51.974;20.868;2024-03-02T09:35:49;38.42;;;20.35;;
38937;SDS011;24727;51.974;20.868;2024-03-02T09:38:15;43.05;;;22.48;;
38937;SDS011;24727;51.974;20.868;2024-03-02T09:40:41;43.33;;;21.70;;
38937;SDS011;24727;51.974;20.868;2024-03-02T09:43:08;41.80;;;20.45;;
38937;SDS011;24727;51.974;20.868;2024-03-02T09:45:34;45.53;;;21.50;;
38937;SDS011;24727;51.974;20.868;2024-03-02T09:48:01;41.65;;;20.10;;
38937;SDS011;24727;51.974;20.868;2024-03-02T09:50:27;36.33;;;19.08;;
38937;SDS011;24727;51.974;20.868;2024-03-02T09:52:53;36.47;;;19.45;;
38937;SDS011;24727;51.974;20.868;2024-03-02T09:55:19;40.83;;;21.33;;
38937;SDS011;24727;51.974;20.868;2024-03-02T09:57:46;37.97;;;19.63;;
38937;SDS011;24727;51.974;20.868;2024-03-02T10:00:13;45.33;;;21.17;;
38937;SDS011;24727;51.974;20.868;2024-03-02T10:02:43;41.42;;;20.40;;
38937;SDS011;24727;51.974;20.868;2024-03-02T10:05:09;38.63;;;19.15;;
38937;SDS011;24727;51.974;20.868;2024-03-02T10:07:36;40.15;;;21.58;;
38937;SDS011;24727;51.974;20.868;2024-03-02T10:10:12;39.97;;;20.65;;
38937;SDS011;24727;51.974;20.868;2024-03-02T10:12:39;35.92;;;19.10;;
38937;SDS011;24727;51.974;20.868;2024-03-02T10:15:05;37.10;;;20.08;;
38937;SDS011;24727;51.974;20.868;2024-03-02T10:17:32;41.00;;;20.63;;
38937;SDS011;24727;51.974;20.868;2024-03-02T10:19:58;40.28;;;20.67;;
38937;SDS011;24727;51.974;20.868;2024-03-02T10:22:24;43.85;;;20.23;;
38937;SDS011;24727;51.974;20.868;2024-03-02T10:24:51;33.22;;;17.17;;
38937;SDS011;24727;51.974;20.868;2024-03-02T10:27:27;33.35;;;18.27;;
38937;SDS011;24727;51.974;20.868;2024-03-02T10:29:54;44.75;;;18.95;;
38937;SDS011;24727;51.974;20.868;2024-03-02T10:32:19;36.97;;;19.67;;
38937;SDS011;24727;51.974;20.868;2024-03-02T10:34:48;35.47;;;19.08;;
38937;SDS011;24727;51.974;20.868;2024-03-02T10:37:15;34.67;;;19.10;;
38937;SDS011;24727;51.974;20.868;2024-03-02T10:39:42;30.75;;;16.52;;
38937;SDS011;24727;51.974;20.868;2024-03-02T10:42:10;36.63;;;18.25;;
38937;SDS011;24727;51.974;20.868;2024-03-02T10:44:39;33.60;;;18.33;;
38937;SDS011;24727;51.974;20.868;2024-03-02T10:47:06;34.00;;;17.23;;
38937;SDS011;24727;51.974;20.868;2024-03-02T10:49:34;35.85;;;19.00;;
38937;SDS011;24727;51.974;20.868;2024-03-02T10:51:59;33.00;;;17.88;;
38937;SDS011;24727;51.974;20.868;2024-03-02T10:54:26;27.48;;;16.85;;
38937;SDS011;24727;51.974;20.868;2024-03-02T10:56:55;33.90;;;18.38;;
38937;SDS011;24727;51.974;20.868;2024-03-02T11:00:06;34.85;;;18.02;;
38937;SDS011;24727;51.974;20.868;2024-03-02T11:02:17;37.83;;;19.58;;
38937;SDS011;24727;51.974;20.868;2024-03-02T11:04:46;31.88;;;18.83;;
38937;SDS011;24727;51.974;20.868;2024-03-02T11:07:14;32.72;;;19.17;;
38937;SDS011;24727;51.974;20.868;2024-03-02T11:09:45;34.33;;;18.05;;
38937;SDS011;24727;51.974;20.868;2024-03-02T11:15:16;28.67;;;16.27;;
38937;SDS011;24727;51.974;20.868;2024-03-02T11:17:46;33.58;;;20.15;;
38937;SDS011;24727;51.974;20.868;2024-03-02T11:20:13;37.20;;;20.52;;
38937;SDS011;24727;51.974;20.868;2024-03-02T11:22:40;29.98;;;16.67;;
38937;SDS011;24727;51.974;20.868;2024-03-02T11:25:06;29.52;;;16.38;;
38937;SDS011;24727;51.974;20.868;2024-03-02T11:35:37;35.40;;;18.17;;
38937;SDS011;24727;51.974;20.868;2024-03-02T11:40:32;31.98;;;18.33;;
38937;SDS011;24727;51.974;20.868;2024-03-02T11:43:00;32.78;;;18.05;;
38937;SDS011;24727;51.974;20.868;2024-03-02T11:45:27;34.60;;;18.83;;
38937;SDS011;24727;51.974;20.868;2024-03-02T11:47:54;33.30;;;18.50;;
38937;SDS011;24727;51.974;20.868;2024-03-02T11:52:56;34.95;;;19.80;;
38937;SDS011;24727;51.974;20.868;2024-03-02T11:55:24;33.35;;;18.55;;
38937;SDS011;24727;51.974;20.868;2024-03-02T11:57:52;31.75;;;18.67;;
38937;SDS011;24727;51.974;20.868;2024-03-02T12:00:18;32.88;;;18.27;;
38937;SDS011;24727;51.974;20.868;2024-03-02T12:02:47;33.58;;;19.75;;
38937;SDS011;24727;51.974;20.868;2024-03-02T12:05:24;31.73;;;18.58;;
38937;SDS011;24727;51.974;20.868;2024-03-02T12:07:59;31.67;;;19.30;;
38937;SDS011;24727;51.974;20.868;2024-03-02T12:10:26;33.88;;;18.40;;
38937;SDS011;24727;51.974;20.868;2024-03-02T12:12:58;27.48;;;17.35;;
38937;SDS011;24727;51.974;20.868;2024-03-02T12:15:25;29.80;;;17.38;;
38937;SDS011;24727;51.974;20.868;2024-03-02T12:17:56;31.08;;;18.13;;
38937;SDS011;24727;51.974;20.868;2024-03-02T12:20:23;31.88;;;19.67;;
38937;SDS011;24727;51.974;20.868;2024-03-02T12:22:51;38.97;;;19.85;;
38937;SDS011;24727;51.974;20.868;2024-03-02T12:25:18;31.95;;;17.42;;
38937;SDS011;24727;51.974;20.868;2024-03-02T12:27:46;29.95;;;18.92;;
38937;SDS011;24727;51.974;20.868;2024-03-02T12:30:13;29.95;;;17.98;;
38937;SDS011;24727;51.974;20.868;2024-03-02T12:32:40;25.90;;;16.85;;
38937;SDS011;24727;51.974;20.868;2024-03-02T12:35:06;35.83;;;20.15;;
38937;SDS011;24727;51.974;20.868;2024-03-02T12:37:32;32.90;;;20.83;;
38937;SDS011;24727;51.974;20.868;2024-03-02T12:39:58;36.75;;;20.08;;
38937;SDS011;24727;51.974;20.868;2024-03-02T12:42:24;29.98;;;19.70;;
38937;SDS011;24727;51.974;20.868;2024-03-02T12:44:53;34.67;;;20.15;;
38937;SDS011;24727;51.974;20.868;2024-03-02T12:47:21;34.13;;;19.33;;
38937;SDS011;24727;51.974;20.868;2024-03-02T12:49:48;37.00;;;22.10;;
38937;SDS011;24727;51.974;20.868;2024-03-02T12:52:16;36.92;;;20.00;;
38937;SDS011;24727;51.974;20.868;2024-03-02T12:54:43;37.88;;;23.27;;
38937;SDS011;24727;51.974;20.868;2024-03-02T12:57:09;36.55;;;22.58;;
38937;SDS011;24727;51.974;20.868;2024-03-02T12:59:35;42.42;;;20.45;;
38937;SDS011;24727;51.974;20.868;2024-03-02T13:02:02;35.13;;;21.02;;
38937;SDS011;24727;51.974;20.868;2024-03-02T13:04:28;32.88;;;18.60;;
38937;SDS011;24727;51.974;20.868;2024-03-02T13:06:55;37.45;;;20.50;;
38937;SDS011;24727;51.974;20.868;2024-03-02T13:09:23;39.78;;;21.83;;
38937;SDS011;24727;51.974;20.868;2024-03-02T13:11:49;39.65;;;25.10;;
38937;SDS011;24727;51.974;20.868;2024-03-02T13:14:15;35.15;;;22.17;;
38937;SDS011;24727;51.974;20.868;2024-03-02T13:16:41;34.53;;;21.42;;
38937;SDS011;24727;51.974;20.868;2024-03-02T13:19:13;36.45;;;21.13;;
38937;SDS011;24727;51.974;20.868;2024-03-02T13:21:39;36.03;;;21.20;;
38937;SDS011;24727;51.974;20.868;2024-03-02T13:24:05;34.00;;;20.95;;
38937;SDS011;24727;51.974;20.868;2024-03-02T13:26:32;38.50;;;22.67;;
38937;SDS011;24727;51.974;20.868;2024-03-02T13:28:58;65.70;;;39.05;;
38937;SDS011;24727;51.974;20.868;2024-03-02T13:31:23;44.08;;;26.58;;
38937;SDS011;24727;51.974;20.868;2024-03-02T13:33:49;35.80;;;23.42;;
38937;SDS011;24727;51.974;20.868;2024-03-02T13:36:15;36.47;;;21.27;;
38937;SDS011;24727;51.974;20.868;2024-03-02T13:38:42;34.22;;;20.80;;
38937;SDS011;24727;51.974;20.868;2024-03-02T13:41:08;35.45;;;21.15;;
38937;SDS011;24727;51.974;20.868;2024-03-02T13:43:33;33.63;;;21.40;;
38937;SDS011;24727;51.974;20.868;2024-03-02T13:46:02;33.78;;;20.65;;
38937;SDS011;24727;51.974;20.868;2024-03-02T13:48:28;34.05;;;19.00;;
38937;SDS011;24727;51.974;20.868;2024-03-02T13:50:54;34.03;;;20.58;;
38937;SDS011;24727;51.974;20.868;2024-03-02T13:53:20;31.75;;;18.42;;
38937;SDS011;24727;51.974;20.868;2024-03-02T13:55:46;31.30;;;18.85;;
38937;SDS011;24727;51.974;20.868;2024-03-02T13:58:12;33.80;;;19.08;;
38937;SDS011;24727;51.974;20.868;2024-03-02T14:00:38;29.30;;;19.02;;
38937;SDS011;24727;51.974;20.868;2024-03-02T14:03:04;34.67;;;19.33;;
38937;SDS011;24727;51.974;20.868;2024-03-02T14:05:33;33.92;;;20.77;;
38937;SDS011;24727;51.974;20.868;2024-03-02T14:07:59;36.63;;;22.48;;
38937;SDS011;24727;51.974;20.868;2024-03-02T14:10:26;35.38;;;21.35;;
38937;SDS011;24727;51.974;20.868;2024-03-02T14:12:52;34.67;;;20.52;;
38937;SDS011;24727;51.974;20.868;2024-03-02T14:15:20;32.58;;;20.30;;
38937;SDS011;24727;51.974;20.868;2024-03-02T14:17:46;33.97;;;20.67;;
38937;SDS011;24727;51.974;20.868;2024-03-02T14:20:12;35.45;;;20.42;;
38937;SDS011;24727;51.974;20.868;2024-03-02T14:22:38;28.45;;;18.55;;
38937;SDS011;24727;51.974;20.868;2024-03-02T14:25:05;28.75;;;19.55;;
38937;SDS011;24727;51.974;20.868;2024-03-02T14:27:31;31.73;;;18.67;;
38937;SDS011;24727;51.974;20.868;2024-03-02T14:29:58;35.17;;;20.63;;
38937;SDS011;24727;51.974;20.868;2024-03-02T14:32:24;31.40;;;18.63;;
38937;SDS011;24727;51.974;20.868;2024-03-02T14:34:50;33.20;;;20.75;;